createdAt,value
2023-04-02T00:00:23.905Z,100601.72
2023-04-02T00:03:04.002Z,100612.72
2023-04-02T00:05:56.151Z,100614.34
2023-04-02T00:08:30.287Z,100623.56
2023-04-02T00:11:02.544Z,100620.75
2023-04-02T00:13:38.601Z,100637.00
2023-04-02T00:16:11.267Z,100636.19
2023-04-02T00:18:45.986Z,100644.72
2023-04-02T00:21:23.032Z,100645.19
2023-04-02T00:23:53.072Z,100657.03
2023-04-02T00:26:28.488Z,100659.13
2023-04-02T00:29:01.464Z,100666.34
2023-04-02T00:31:32.284Z,100676.06
2023-04-02T00:34:04.900Z,100676.78
2023-04-02T00:36:36.992Z,100678.84
2023-04-02T00:39:17.104Z,100683.28
2023-04-02T00:41:49.662Z,100690.69
2023-04-02T00:44:23.978Z,100699.41
2023-04-02T00:46:55.528Z,100691.50
2023-04-02T00:49:32.882Z,100698.72
2023-04-02T00:52:07.477Z,100700.81
2023-04-02T00:54:48.417Z,100712.81
2023-04-02T00:57:23.565Z,100714.31
2023-04-02T01:00:03.877Z,100714.94
2023-04-02T01:02:35.891Z,100715.44
2023-04-02T01:05:22.948Z,100725.94
2023-04-02T01:08:09.650Z,100742.09
2023-04-02T01:11:01.408Z,100757.41
2023-04-02T01:13:38.240Z,100747.09
2023-04-02T01:16:20.814Z,100747.72
2023-04-02T01:19:02.147Z,100754.53
2023-04-02T01:21:53.060Z,100757.91
2023-04-02T01:24:27.292Z,100764.34
2023-04-02T01:27:01.367Z,100762.13
2023-04-02T01:29:36.088Z,100766.97
2023-04-02T01:32:09.924Z,100773.91
2023-04-02T01:34:40.573Z,100773.81
2023-04-02T01:37:24.857Z,100776.63
2023-04-02T01:40:09.038Z,100784.38
2023-04-02T01:42:44.709Z,100791.97
2023-04-02T01:45:19.785Z,100802.44
2023-04-02T01:47:49.732Z,100788.84
2023-04-02T01:50:31.767Z,100795.34
2023-04-02T01:53:05.750Z,100810.75
2023-04-02T01:55:42.571Z,100808.34
2023-04-02T01:58:14.387Z,100819.66
2023-04-02T02:00:52.378Z,100816.53
2023-04-02T02:03:23.412Z,100827.44
2023-04-02T02:05:54.131Z,100833.53
2023-04-02T02:08:32.900Z,100838.91
2023-04-02T02:11:03.107Z,100845.63
2023-04-02T02:13:32.957Z,100853.22
2023-04-02T02:16:07.451Z,100848.41
2023-04-02T02:18:37.533Z,100857.31
2023-04-02T02:21:10.848Z,100854.59
2023-04-02T02:23:40.762Z,100861.47
2023-04-02T02:26:11.160Z,100872.06
2023-04-02T02:28:46.140Z,100869.88
2023-04-02T02:31:22.905Z,100885.03
2023-04-02T02:33:56.100Z,100884.69
2023-04-02T02:36:31.004Z,100892.09
2023-04-02T02:39:05.428Z,100893.25
2023-04-02T02:41:41.647Z,100906.81
2023-04-02T02:44:17.321Z,100903.91
2023-04-02T02:46:53.473Z,100906.28
2023-04-02T02:49:27.238Z,100919.22
2023-04-02T02:52:01.896Z,100921.75
2023-04-02T02:54:35.403Z,100917.09
2023-04-02T02:57:10.243Z,100923.31
2023-04-02T02:59:41.654Z,100924.75
2023-04-02T03:02:14.447Z,100940.97
2023-04-02T03:04:48.283Z,100944.22
2023-04-02T03:07:19.466Z,100947.72
2023-04-02T03:09:56.298Z,100959.91
2023-04-02T03:12:41.867Z,100969.22
2023-04-02T03:15:21.295Z,100970.84
2023-04-02T03:18:00.840Z,100975.19
2023-04-02T03:20:39.344Z,100975.78
2023-04-02T03:23:19.275Z,100976.84
2023-04-02T03:25:55.970Z,100982.31
2023-04-02T03:28:30.616Z,100996.66
2023-04-02T03:31:04.529Z,100998.50
2023-04-02T03:33:41.100Z,101018.50
2023-04-02T03:36:22.025Z,101013.66
2023-04-02T03:38:56.504Z,101027.25
2023-04-02T03:41:33.769Z,101037.97
2023-04-02T03:44:08.998Z,101031.44
2023-04-02T03:46:43.729Z,101031.03
2023-04-02T03:49:22.395Z,101040.50
2023-04-02T03:51:58.434Z,101048.31
2023-04-02T03:54:28.601Z,101050.44
2023-04-02T03:56:58.634Z,101055.00
2023-04-02T03:59:36.956Z,101066.03
2023-04-02T04:02:18.640Z,101069.88
2023-04-02T04:04:53.427Z,101070.94
2023-04-02T04:07:34.151Z,101078.53
2023-04-02T04:10:05.926Z,101090.94
2023-04-02T04:12:38.937Z,101090.59
2023-04-02T04:15:12.857Z,101103.81
2023-04-02T04:17:55.162Z,101111.94
2023-04-02T04:20:34.024Z,101116.25
2023-04-02T04:23:13.831Z,101127.16
2023-04-02T04:25:44.461Z,101123.13
2023-04-02T04:28:25.254Z,101131.25
2023-04-02T04:31:01.611Z,101142.41
2023-04-02T04:33:39.762Z,101137.53
2023-04-02T04:36:29.067Z,101147.25
2023-04-02T04:39:03.890Z,101142.94
2023-04-02T04:41:38.443Z,101158.28
2023-04-02T04:44:15.971Z,101170.41
2023-04-02T04:46:52.399Z,101169.34
2023-04-02T04:49:26.232Z,101180.69
2023-04-02T04:52:02.792Z,101180.19
2023-04-02T04:54:32.689Z,101200.69
2023-04-02T04:57:05.739Z,101200.69
2023-04-02T04:59:43.292Z,101212.59
2023-04-02T05:02:19.444Z,101217.44
2023-04-02T05:04:53.827Z,101219.34
2023-04-02T05:07:30.854Z,101216.88
2023-04-02T05:10:05.462Z,101229.84
2023-04-02T05:12:40.118Z,101234.22
2023-04-02T05:15:19.679Z,101246.91
2023-04-02T05:17:56.874Z,101257.44
2023-04-02T05:20:31.348Z,101250.16
2023-04-02T05:23:12.080Z,101255.84
2023-04-02T05:25:54.804Z,101261.19
2023-04-02T05:28:32.167Z,101276.28
2023-04-02T05:31:08.837Z,101291.34
2023-04-02T05:33:39.868Z,101282.75
2023-04-02T05:36:13.503Z,101296.78
2023-04-02T05:38:48.926Z,101295.72
2023-04-02T05:41:27.312Z,101309.75
2023-04-02T05:44:08.569Z,101300.06
2023-04-02T05:46:44.565Z,101314.88
2023-04-02T05:49:25.617Z,101330.78
2023-04-02T05:52:01.050Z,101325.13
2023-04-02T05:54:37.434Z,101334.84
2023-04-02T05:57:18.029Z,101341.59
2023-04-02T05:59:53.211Z,101351.81
2023-04-02T06:02:28.276Z,101344.81
2023-04-02T06:05:04.821Z,101349.09
2023-04-02T06:07:45.273Z,101366.38
2023-04-02T06:10:24.744Z,101362.59
2023-04-02T06:12:58.360Z,101375.53
2023-04-02T06:15:28.302Z,101383.59
2023-04-02T06:18:03.570Z,101380.91
2023-04-02T06:20:34.314Z,101388.44
2023-04-02T06:23:10.310Z,101397.06
2023-04-02T06:25:47.283Z,101401.69
2023-04-02T06:28:21.920Z,101411.09
2023-04-02T06:30:53.188Z,101418.66
2023-04-02T06:33:23.380Z,101420.81
2023-04-02T06:35:57.632Z,101435.63
2023-04-02T06:38:32.997Z,101436.44
2023-04-02T06:41:13.369Z,101436.41
2023-04-02T06:43:48.660Z,101438.00
2023-04-02T06:46:23.661Z,101449.88
2023-04-02T06:48:59.100Z,101457.19
2023-04-02T06:51:30.517Z,101462.28
2023-04-02T06:54:00.484Z,101471.44
2023-04-02T06:56:43.291Z,101464.44
2023-04-02T06:59:13.782Z,101472.53
2023-04-02T07:01:48.535Z,101478.47
2023-04-02T07:04:19.534Z,101488.16
2023-04-02T07:06:49.903Z,101487.06
2023-04-02T07:09:22.953Z,101497.84
2023-04-02T07:11:55.458Z,101505.94
2023-04-02T07:14:25.271Z,101499.47
2023-04-02T07:16:55.506Z,101509.97
2023-04-02T07:19:28.738Z,101508.63
2023-04-02T07:21:58.537Z,101525.91
2023-04-02T07:24:28.529Z,101539.91
2023-04-02T07:27:01.250Z,101548.25
2023-04-02T07:29:31.206Z,101544.72
2023-04-02T07:32:01.194Z,101549.03
2023-04-02T07:34:31.038Z,101555.50
2023-04-02T07:37:02.801Z,101557.66
2023-04-02T07:39:35.543Z,101558.75
2023-04-02T07:42:11.559Z,101571.41
2023-04-02T07:44:41.423Z,101568.94
2023-04-02T07:47:11.763Z,101577.88
2023-04-02T07:49:42.019Z,101581.88
2023-04-02T07:52:14.868Z,101588.38
2023-04-02T07:54:44.826Z,101588.38
2023-04-02T07:57:17.380Z,101589.44
2023-04-02T07:59:47.758Z,101601.28
2023-04-02T08:02:23.166Z,101611.75
2023-04-02T08:04:54.281Z,101614.44
2023-04-02T08:07:24.140Z,101621.44
2023-04-02T08:09:54.147Z,101621.75
2023-04-02T08:12:26.832Z,101629.81
2023-04-02T08:14:56.771Z,101638.41
2023-04-02T08:17:31.460Z,101632.53
2023-04-02T08:20:02.578Z,101632.06
2023-04-02T08:22:33.776Z,101641.22
2023-04-02T08:25:03.729Z,101648.75
2023-04-02T08:27:36.439Z,101653.03
2023-04-02T08:30:07.964Z,101665.47
2023-04-02T08:32:38.237Z,101671.44
2023-04-02T08:35:10.157Z,101662.28
2023-04-02T08:37:40.737Z,101668.81
2023-04-02T08:40:20.301Z,101673.16
2023-04-02T08:43:05.225Z,101685.00
2023-04-02T08:45:48.428Z,101685.53
2023-04-02T08:48:18.842Z,101695.81
2023-04-02T08:50:49.251Z,101698.00
2023-04-02T08:56:06.077Z,101686.16
2023-04-02T08:58:44.416Z,101696.44
2023-04-02T09:01:25.819Z,101700.81
2023-04-02T09:04:01.009Z,101715.63
2023-04-02T09:06:30.994Z,101720.75
2023-04-02T09:09:01.431Z,101718.56
2023-04-02T09:11:38.774Z,101734.19
2023-04-02T09:14:21.369Z,101737.69
2023-04-02T09:16:55.617Z,101738.00
2023-04-02T09:19:28.319Z,101747.72
2023-04-02T09:22:06.606Z,101748.84
2023-04-02T09:24:37.870Z,101755.28
2023-04-02T09:27:19.438Z,101758.03
2023-04-02T09:29:54.590Z,101760.19
2023-04-02T09:32:45.104Z,101777.16
2023-04-02T09:35:26.080Z,101779.13
2023-04-02T09:38:22.126Z,101773.78
2023-04-02T09:40:55.080Z,101782.97
2023-04-02T09:43:26.850Z,101783.50
2023-04-02T09:46:05.496Z,101791.06
2023-04-02T09:48:39.165Z,101806.19
2023-04-02T09:51:15.576Z,101801.06
2023-04-02T09:53:46.834Z,101807.00
2023-04-02T09:56:21.995Z,101812.41
2023-04-02T09:59:06.546Z,101811.06
2023-04-02T10:01:40.382Z,101814.88
2023-04-02T10:04:48.330Z,101821.91
2023-04-02T10:07:35.758Z,101831.09
2023-04-02T10:10:20.673Z,101832.50
2023-04-02T10:12:57.195Z,101834.66
2023-04-02T10:15:32.836Z,101835.75
2023-04-02T10:18:15.979Z,101843.56
2023-04-02T10:20:51.556Z,101850.84
2023-04-02T10:23:23.142Z,101864.09
2023-04-02T10:25:58.827Z,101872.16
2023-04-02T10:28:40.428Z,101881.88
2023-04-02T10:31:17.711Z,101880.56
2023-04-02T10:33:54.871Z,101876.53
2023-04-02T10:36:37.460Z,101883.03
2023-04-02T10:39:14.997Z,101881.41
2023-04-02T10:41:51.550Z,101892.78
2023-04-02T10:44:46.783Z,101900.63
2023-04-02T10:47:27.896Z,101893.03
2023-04-02T10:50:21.485Z,101913.00
2023-04-02T10:52:58.880Z,101916.81
2023-04-02T10:55:33.516Z,101920.34
2023-04-02T10:58:09.363Z,101939.25
2023-04-02T11:00:46.059Z,101933.31
2023-04-02T11:03:19.649Z,101933.00
2023-04-02T11:05:54.233Z,101948.16
2023-04-02T11:08:28.908Z,101940.88
2023-04-02T11:11:04.738Z,101947.91
2023-04-02T11:13:40.211Z,101956.03
2023-04-02T11:16:10.570Z,101957.97
2023-04-02T11:18:40.898Z,101959.31
2023-04-02T11:21:57.248Z,101974.41
2023-04-02T11:24:47.966Z,101967.91
2023-04-02T11:27:25.606Z,101971.19
2023-04-02T11:30:02.758Z,101975.25
2023-04-02T11:32:39.619Z,101965.81
2023-04-02T11:35:29.974Z,101985.28
2023-04-02T11:38:05.260Z,101978.28
2023-04-02T11:40:52.291Z,101973.44
2023-04-02T11:43:51.575Z,101985.06
2023-04-02T11:46:42.831Z,101987.47
2023-04-02T11:49:45.171Z,101998.78
2023-04-02T11:52:26.900Z,101995.88
2023-04-02T11:55:24.899Z,101999.41
2023-04-02T11:58:05.111Z,101995.09
2023-04-02T12:00:56.438Z,102006.97
2023-04-02T12:03:46.523Z,102014.28
2023-04-02T12:06:27.884Z,102012.97
2023-04-02T12:09:09.321Z,102010.78
2023-04-02T12:11:44.540Z,102010.78
2023-04-02T12:14:45.831Z,102011.88
2023-04-02T12:17:27.206Z,102024.31
2023-04-02T12:19:58.836Z,102034.06
2023-04-02T12:22:31.355Z,102030.81
2023-04-02T12:25:03.877Z,102033.50
2023-04-02T12:27:38.545Z,102037.31
2023-04-02T12:30:17.822Z,102047.03
2023-04-02T12:32:48.139Z,102053.00
2023-04-02T12:35:32.251Z,102049.78
2023-04-02T12:38:02.446Z,102052.47
2023-04-02T12:40:32.463Z,102068.16
2023-04-02T12:43:04.960Z,102055.69
2023-04-02T12:45:37.231Z,102061.13
2023-04-02T12:48:09.182Z,102077.91
2023-04-02T12:50:39.251Z,102074.66
2023-04-02T12:53:24.014Z,102075.22
2023-04-02T12:55:56.436Z,102063.84
2023-04-02T12:58:35.541Z,102076.81
2023-04-02T13:01:19.543Z,102073.84
2023-04-02T13:04:06.371Z,102076.31
2023-04-02T13:06:37.517Z,102081.16
2023-04-02T13:09:09.806Z,102084.16
2023-04-02T13:11:41.554Z,102099.56
2023-04-02T13:14:22.169Z,102092.53
2023-04-02T13:16:52.226Z,102091.19
2023-04-02T13:19:31.247Z,102089.03
2023-04-02T13:22:03.193Z,102094.13
2023-04-02T13:24:34.926Z,102093.09
2023-04-02T13:27:06.808Z,102093.91
2023-04-02T13:29:39.947Z,102096.56
2023-04-02T13:32:15.856Z,102097.38
2023-04-02T13:34:45.850Z,102098.47
2023-04-02T13:37:18.384Z,102097.94
2023-04-02T13:39:48.379Z,102097.09
2023-04-02T13:42:19.140Z,102101.19
2023-04-02T13:44:52.166Z,102102.81
2023-04-02T13:47:22.203Z,102101.16
2023-04-02T13:49:52.091Z,102103.34
2023-04-02T13:52:21.999Z,102110.38
2023-04-02T13:54:54.780Z,102105.75
2023-04-02T13:57:25.039Z,102113.63
2023-04-02T13:59:57.860Z,102114.66
2023-04-02T14:02:28.628Z,102111.97
2023-04-02T14:05:12.392Z,102116.56
2023-04-02T14:07:58.882Z,102117.84
2023-04-02T14:10:41.281Z,102100.34
2023-04-02T14:13:23.282Z,102104.69
2023-04-02T14:16:10.715Z,102113.28
2023-04-02T14:18:52.542Z,102114.41
2023-04-02T14:21:33.521Z,102122.63
2023-04-02T14:24:16.607Z,102122.06
2023-04-02T14:26:56.788Z,102119.81
2023-04-02T14:29:33.741Z,102112.69
2023-04-02T14:32:10.291Z,102121.81
2023-04-02T14:34:48.201Z,102119.63
2023-04-02T14:37:23.879Z,102117.84
2023-04-02T14:40:04.716Z,102125.94
2023-04-02T14:42:41.026Z,102127.34
2023-04-02T14:45:18.420Z,102129.84
2023-04-02T14:47:56.263Z,102136.94
2023-04-02T14:50:33.314Z,102133.16
2023-04-02T14:53:10.576Z,102139.63
2023-04-02T14:55:47.577Z,102135.44
2023-04-02T14:58:22.483Z,102146.09
2023-04-02T15:00:59.750Z,102144.44
2023-04-02T15:03:38.151Z,102148.88
2023-04-02T15:06:13.259Z,102155.56
2023-04-02T15:09:02.222Z,102157.00
2023-04-02T15:11:41.411Z,102168.22
2023-04-02T15:14:19.537Z,102158.72
2023-04-02T15:16:49.542Z,102162.47
2023-04-02T15:19:22.771Z,102166.16
2023-04-02T15:22:10.340Z,102165.16
2023-04-02T15:24:56.534Z,102166.88
2023-04-02T15:27:42.834Z,102181.44
2023-04-02T15:30:18.055Z,102176.25
2023-04-02T15:32:49.318Z,102170.22
2023-04-02T15:35:31.849Z,102176.34
2023-04-02T15:38:08.528Z,102177.63
2023-04-02T15:40:49.804Z,102173.22
2023-04-02T15:43:25.027Z,102176.53
2023-04-02T15:46:10.369Z,102189.16
2023-04-02T15:49:02.879Z,102188.09
2023-04-02T15:51:54.372Z,102188.94
2023-04-02T15:54:39.872Z,102190.91
2023-04-02T15:57:23.687Z,102202.53
2023-04-02T16:00:16.711Z,102206.03
2023-04-02T16:03:31.236Z,102203.41
2023-04-02T16:06:32.506Z,102208.84
2023-04-02T16:09:17.847Z,102206.13
2023-04-02T16:11:47.754Z,102215.84
2023-04-02T16:14:28.098Z,102219.09
2023-04-02T16:17:10.829Z,102227.22
2023-04-02T16:19:52.094Z,102228.28
2023-04-02T16:22:27.958Z,102234.25
2023-04-02T16:25:04.682Z,102236.47
2023-04-02T16:27:38.663Z,102244.09
2023-04-02T16:30:35.525Z,102254.72
2023-04-02T16:33:22.932Z,102250.09
2023-04-02T16:36:07.009Z,102249.00
2023-04-02T16:38:56.386Z,102262.03
2023-04-02T16:41:37.270Z,102262.56
2023-04-02T16:44:21.242Z,102261.50
2023-04-02T16:47:02.996Z,102263.41
2023-04-02T16:49:39.427Z,102271.31
2023-04-02T16:52:25.855Z,102282.72
2023-04-02T16:55:14.084Z,102274.06
2023-04-02T16:57:57.744Z,102283.53
2023-04-02T17:00:36.162Z,102291.09
2023-04-02T17:03:20.949Z,102299.00
2023-04-02T17:05:58.624Z,102301.44
2023-04-02T17:08:30.415Z,102303.88
2023-04-02T17:11:04.845Z,102307.66
2023-04-02T17:13:43.207Z,102317.72
2023-04-02T17:16:21.935Z,102328.84
2023-04-02T17:18:55.252Z,102325.88
2023-04-02T17:21:29.190Z,102335.34
2023-04-02T17:24:03.516Z,102333.97
2023-04-02T17:26:37.717Z,102337.53
2023-04-02T17:29:12.554Z,102325.56
2023-04-02T17:31:45.763Z,102336.97
2023-04-02T17:34:18.009Z,102342.09
2023-04-02T17:36:57.347Z,102360.25
2023-04-02T17:39:36.232Z,102350.78
2023-04-02T17:42:16.430Z,102361.88
2023-04-02T17:44:59.357Z,102367.81
2023-04-02T17:47:38.061Z,102366.19
2023-04-02T17:50:32.367Z,102364.56
2023-04-02T17:53:10.657Z,102365.38
2023-04-02T17:55:52.019Z,102362.41
2023-04-02T17:58:40.254Z,102369.41
2023-04-02T18:01:23.767Z,102362.88
2023-04-02T18:04:02.821Z,102387.28
2023-04-02T18:06:41.572Z,102388.84
2023-04-02T18:09:37.515Z,102392.06
2023-04-02T18:12:23.316Z,102392.53
2023-04-02T18:15:08.441Z,102394.66
2023-04-02T18:17:51.689Z,102404.94
2023-04-02T18:20:31.582Z,102398.72
2023-04-02T18:23:11.237Z,102405.50
2023-04-02T18:25:57.024Z,102406.53
2023-04-02T18:28:41.813Z,102407.63
2023-04-02T18:31:20.403Z,102410.88
2023-04-02T18:34:23.658Z,102419.53
2023-04-02T18:37:06.578Z,102424.41
2023-04-02T18:39:48.751Z,102418.72
2023-04-02T18:42:27.263Z,102425.25
2023-04-02T18:45:07.353Z,102421.72
2023-04-02T18:47:47.984Z,102429.84
2023-04-02T18:50:28.264Z,102433.59
2023-04-02T18:52:58.128Z,102439.00
2023-04-02T18:55:31.265Z,102437.91
2023-04-02T18:58:07.022Z,102442.22
2023-04-02T19:00:42.146Z,102444.88
2023-04-02T19:03:20.827Z,102450.25
2023-04-02T19:05:58.513Z,102450.72
2023-04-02T19:08:34.274Z,102464.22
2023-04-02T19:11:10.127Z,102463.09
2023-04-02T19:13:39.996Z,102466.78
2023-04-02T19:16:42.303Z,102480.19
2023-04-02T19:19:20.530Z,102478.81
2023-04-02T19:22:19.833Z,102473.63
2023-04-02T19:25:23.270Z,102473.56
2023-04-02T19:28:06.887Z,102483.25
2023-04-02T19:30:51.928Z,102486.97
2023-04-02T19:33:34.636Z,102480.44
2023-04-02T19:36:19.634Z,102489.06
2023-04-02T19:39:05.597Z,102484.16
2023-04-02T19:41:42.927Z,102495.53
2023-04-02T19:44:14.625Z,102499.31
2023-04-02T19:46:45.327Z,102494.44
2023-04-02T19:49:20.116Z,102504.91
2023-04-02T19:51:49.984Z,102499.22
2023-04-02T19:54:22.492Z,102507.25
2023-04-02T19:56:52.632Z,102511.50
2023-04-02T19:59:22.530Z,102513.34
2023-04-02T20:01:52.437Z,102516.81
2023-04-02T20:04:22.424Z,102511.56
2023-04-02T20:06:52.676Z,102518.78
2023-04-02T20:09:25.185Z,102525.19
2023-04-02T20:11:55.100Z,102518.66
2023-04-02T20:14:25.083Z,102529.13
2023-04-02T20:16:57.008Z,102539.63
2023-04-02T20:19:26.971Z,102536.03
2023-04-02T20:21:56.998Z,102536.22
2023-04-02T20:24:29.463Z,102535.09
2023-04-02T20:26:59.347Z,102539.59
2023-04-02T20:29:31.001Z,102542.44
2023-04-02T20:32:00.814Z,102546.69
2023-04-02T20:34:30.821Z,102549.09
2023-04-02T20:37:00.918Z,102553.06
2023-04-02T20:39:33.418Z,102553.06
2023-04-02T20:42:03.917Z,102555.78
2023-04-02T20:44:33.834Z,102558.47
2023-04-02T20:47:03.876Z,102563.56
2023-04-02T20:49:33.803Z,102568.59
2023-04-02T20:52:03.662Z,102576.63
2023-04-02T20:54:36.558Z,102567.38
2023-04-02T20:57:07.357Z,102568.94
2023-04-02T20:59:37.457Z,102575.06
2023-04-02T21:02:07.512Z,102582.81
2023-04-02T21:04:37.408Z,102585.44
2023-04-02T21:07:07.364Z,102584.53
2023-04-02T21:09:40.002Z,102590.63
2023-04-02T21:12:11.713Z,102597.59
2023-04-02T21:14:41.674Z,102595.84
2023-04-02T21:17:11.600Z,102600.88
2023-04-02T21:19:41.427Z,102607.59
2023-04-02T21:22:11.273Z,102611.81
2023-04-02T21:24:43.721Z,102616.06
2023-04-02T21:27:13.715Z,102616.78
2023-04-02T21:29:43.567Z,102612.94
2023-04-02T21:32:21.290Z,102614.44
2023-04-02T21:34:52.021Z,102606.03
2023-04-02T21:37:21.889Z,102614.13
2023-04-02T21:39:54.424Z,102618.44
2023-04-02T21:42:24.615Z,102610.94
2023-04-02T21:44:56.176Z,102610.94
2023-04-02T21:47:27.872Z,102605.56
2023-04-02T21:49:57.769Z,102611.44
2023-04-02T21:52:27.648Z,102612.94
2023-04-02T21:55:00.167Z,102618.00
2023-04-02T21:57:30.111Z,102618.72
2023-04-02T22:00:00.012Z,102618.34
2023-04-02T22:02:29.852Z,102623.41
2023-04-02T22:04:59.841Z,102623.06
2023-04-02T22:07:29.647Z,102630.78
2023-04-02T22:10:02.072Z,102620.44
2023-04-02T22:12:31.933Z,102630.06
2023-04-02T22:15:01.770Z,102636.16
2023-04-02T22:17:31.687Z,102625.88
2023-04-02T22:20:05.187Z,102630.69
2023-04-02T22:22:35.069Z,102627.63
2023-04-02T22:25:08.460Z,102629.72
2023-04-02T22:27:38.250Z,102635.56
2023-04-02T22:30:09.986Z,102637.94
2023-04-02T22:32:40.459Z,102634.88
2023-04-02T22:35:11.056Z,102640.72
2023-04-02T22:37:40.931Z,102650.31
2023-04-02T22:40:16.735Z,102651.97
2023-04-02T22:42:47.918Z,102645.75
2023-04-02T22:45:21.187Z,102653.63
2023-04-02T22:47:51.651Z,102646.56
2023-04-02T22:50:22.303Z,102649.25
2023-04-02T22:52:52.164Z,102652.19
2023-04-02T22:55:24.743Z,102652.91
2023-04-02T22:57:54.549Z,102653.34
2023-04-02T23:00:25.273Z,102655.72
2023-04-02T23:02:55.182Z,102665.53
2023-04-02T23:05:25.128Z,102664.34
2023-04-02T23:07:57.945Z,102663.19
2023-04-02T23:10:30.754Z,102662.47
2023-04-02T23:13:00.851Z,102666.66
2023-04-02T23:15:30.726Z,102664.44
2023-04-02T23:18:00.685Z,102662.19
2023-04-02T23:20:30.588Z,102671.78
2023-04-02T23:23:00.643Z,102666.84
2023-04-02T23:25:33.248Z,102674.31
2023-04-02T23:28:03.534Z,102674.78
2023-04-02T23:30:33.789Z,102671.97
2023-04-02T23:33:04.736Z,102671.16
2023-04-02T23:35:34.680Z,102670.75
2023-04-02T23:38:04.516Z,102679.31
2023-04-02T23:40:37.543Z,102675.41
2023-04-02T23:43:07.580Z,102686.63
2023-04-02T23:45:37.455Z,102676.69
2023-04-02T23:48:07.915Z,102683.72
2023-04-02T23:50:38.126Z,102680.78
2023-04-02T23:53:08.128Z,102693.22
2023-04-02T23:55:41.076Z,102690.72
2023-04-02T23:58:12.388Z,102689.91
